Time;durP1;ratioP1;P1;durP2;ratioP2;P2;SDS_P1;SDS_P2;PMS_P1;PMS_P2;Temp;Humidity;BMP_temperature;BMP_pressure;BME280_temperature;BME280_humidity;BME280_pressure;Samples;Min_cycle;Max_cycle;Signal;HPM_P1;HPM_P2
2022/05/30 00:02:16;;;;;;;7.07;6.23;;;10.80;99.90;;;;;;6323684;28;20479;-65
2022/05/30 00:05:23;;;;;;;8.57;7.83;;;10.70;99.90;;;;;;6325059;28;20555;-64
2022/05/30 00:08:27;;;;;;;8.57;7.67;;;10.60;99.90;;;;;;6321012;28;20461;-64
2022/05/30 00:11:30;;;;;;;7.90;7.10;;;10.50;99.90;;;;;;6321627;28;20473;-65
2022/05/30 00:14:34;;;;;;;6.93;6.30;;;10.70;99.90;;;;;;6325053;28;20461;-64
2022/05/30 00:17:37;;;;;;;7.97;7.17;;;10.70;99.90;;;;;;6324983;28;20526;-64
2022/05/30 00:20:45;;;;;;;8.23;7.43;;;10.80;99.90;;;;;;6325419;28;20819;-64
2022/05/30 00:23:53;;;;;;;7.73;7.00;;;10.80;99.90;;;;;;6324340;28;20946;-64
2022/05/30 00:26:57;;;;;;;8.23;6.80;;;10.80;99.90;;;;;;6325652;28;20829;-64
2022/05/30 00:30:00;;;;;;;9.47;6.60;;;10.80;99.90;;;;;;6325707;28;20510;-64
2022/05/30 00:33:03;;;;;;;7.73;6.93;;;10.80;99.90;;;;;;6325377;28;20469;-64
2022/05/30 00:36:07;;;;;;;7.40;6.70;;;10.80;99.90;;;;;;6325614;28;20469;-64
2022/05/30 00:39:11;;;;;;;8.70;7.90;;;10.80;99.90;;;;;;6325356;28;20556;-63
2022/05/30 00:42:17;;;;;;;8.30;7.50;;;10.80;99.90;;;;;;6325048;28;20963;-63
2022/05/30 00:45:20;;;;;;;7.90;7.20;;;10.80;99.90;;;;;;6325136;28;20958;-63
2022/05/30 00:48:27;;;;;;;8.10;7.33;;;10.80;99.90;;;;;;6325428;28;20479;-64
2022/05/30 00:51:34;;;;;;;7.37;6.77;;;10.70;99.90;;;;;;6325061;28;20476;-63
2022/05/30 00:54:46;;;;;;;7.70;6.33;;;10.80;99.90;;;;;;6325482;28;20465;-64
2022/05/30 00:57:50;;;;;;;7.70;6.90;;;10.70;99.90;;;;;;6325270;28;20449;-63
2022/05/30 01:00:53;;;;;;;6.30;5.70;;;10.70;99.90;;;;;;6325498;28;20437;-63
2022/05/30 01:07:19;;;;;;;8.37;7.57;;;10.60;99.90;;;;;;6325191;28;20797;-64
2022/05/30 01:10:24;;;;;;;7.77;7.07;;;10.60;99.90;;;;;;6325112;28;20461;-65
2022/05/30 01:13:27;;;;;;;6.90;6.37;;;10.50;99.90;;;;;;6324735;28;20954;-63
2022/05/30 01:16:31;;;;;;;7.33;6.73;;;10.50;99.90;;;;;;6325084;28;20479;-64
2022/05/30 01:19:53;;;;;;;7.50;6.80;;;10.50;99.90;;;;;;6325207;28;20479;-64
2022/05/30 01:23:35;;;;;;;7.83;7.03;;;10.50;99.90;;;;;;6324963;28;20475;-68
2022/05/30 01:26:58;;;;;;;7.83;7.07;;;10.40;99.90;;;;;;6329154;28;20464;-64
2022/05/30 01:30:07;;;;;;;8.20;7.50;;;10.40;99.90;;;;;;6328531;28;20460;-64
2022/05/30 01:33:10;;;;;;;8.37;7.57;;;10.40;99.90;;;;;;6329554;28;20487;-64
2022/05/30 01:36:13;;;;;;;8.30;7.50;;;10.40;99.90;;;;;;6330325;28;20479;-64
2022/05/30 01:39:17;;;;;;;8.40;7.70;;;10.30;99.90;;;;;;6329457;28;20843;-64
2022/05/30 01:42:21;;;;;;;9.07;8.13;;;10.30;99.90;;;;;;6329460;28;20483;-64
2022/05/30 01:45:26;;;;;;;8.80;7.90;;;10.30;99.90;;;;;;6329461;28;20799;-64
2022/05/30 01:48:29;;;;;;;9.07;8.23;;;10.20;99.90;;;;;;6329474;28;20476;-64
2022/05/30 01:51:33;;;;;;;8.20;7.40;;;10.20;99.90;;;;;;6329476;28;20472;-64
2022/05/30 01:54:36;;;;;;;8.53;7.83;;;10.10;99.90;;;;;;6329547;28;20961;-63
2022/05/30 01:57:40;;;;;;;7.60;6.80;;;10.10;99.90;;;;;;6329358;28;20481;-63
2022/05/30 02:00:44;;;;;;;8.17;7.57;;;10.10;99.90;;;;;;6332020;28;20468;-63
2022/05/30 02:03:49;;;;;;;10.13;7.73;;;10.00;99.90;;;;;;6331307;28;20471;-63
2022/05/30 02:06:52;;;;;;;8.20;7.40;;;10.00;99.90;;;;;;6334582;28;20444;-64
2022/05/30 02:09:55;;;;;;;9.87;8.87;;;10.00;99.90;;;;;;6329302;28;20436;-63
2022/05/30 02:12:59;;;;;;;7.43;6.80;;;9.90;99.90;;;;;;6329491;28;20476;-63
2022/05/30 02:19:26;;;;;;;6.93;6.43;;;9.80;99.90;;;;;;6329047;28;20492;-63
2022/05/30 02:22:29;;;;;;;8.27;7.57;;;9.80;99.90;;;;;;6328772;28;20547;-65
2022/05/30 02:25:32;;;;;;;7.87;7.27;;;9.80;99.90;;;;;;6328759;28;20941;-65
2022/05/30 02:28:35;;;;;;;7.57;6.97;;;9.80;99.90;;;;;;6328997;28;20468;-64
2022/05/30 02:31:41;;;;;;;8.00;7.30;;;9.80;99.90;;;;;;6328035;28;20480;-65
2022/05/30 02:38:06;;;;;;;8.17;7.43;;;9.70;99.90;;;;;;6328268;28;20795;-64
2022/05/30 02:41:09;;;;;;;8.27;7.60;;;9.70;99.90;;;;;;6328665;28;20480;-64
2022/05/30 02:44:13;;;;;;;7.67;6.87;;;9.70;99.90;;;;;;6327695;28;20484;-64
2022/05/30 02:47:18;;;;;;;7.40;6.80;;;9.80;99.90;;;;;;6328612;28;20468;-64
2022/05/30 02:50:21;;;;;;;8.43;7.70;;;9.80;99.90;;;;;;6327832;28;20797;-65
2022/05/30 02:53:24;;;;;;;8.10;7.47;;;9.80;99.90;;;;;;6327864;28;20957;-63
2022/05/30 02:56:27;;;;;;;7.93;7.20;;;9.80;99.90;;;;;;6327854;28;20479;-63
2022/05/30 02:59:30;;;;;;;7.93;7.23;;;9.70;99.90;;;;;;6328032;28;20553;-62
2022/05/30 03:02:35;;;;;;;7.87;7.27;;;9.80;99.90;;;;;;6327964;28;20793;-62
2022/05/30 03:05:38;;;;;;;8.30;7.50;;;9.80;99.90;;;;;;6327777;28;20472;-62
2022/05/30 03:08:41;;;;;;;8.33;7.43;;;9.80;99.90;;;;;;6327624;28;20805;-62
2022/05/30 03:11:44;;;;;;;7.13;6.50;;;9.90;99.90;;;;;;6327845;28;20480;-63
2022/05/30 03:14:49;;;;;;;8.20;7.40;;;9.70;99.90;;;;;;6327374;28;20475;-63
2022/05/30 03:17:53;;;;;;;7.53;6.83;;;9.70;99.90;;;;;;6327419;28;20486;-63
2022/05/30 03:20:56;;;;;;;8.67;7.87;;;9.50;99.90;;;;;;6322705;28;20480;-63
2022/05/30 03:23:59;;;;;;;6.97;6.37;;;9.60;99.90;;;;;;6327353;28;20472;-63
2022/05/30 03:27:03;;;;;;;7.13;6.53;;;9.60;99.90;;;;;;6327427;28;20468;-63
2022/05/30 03:30:08;;;;;;;8.70;8.00;;;9.60;99.90;;;;;;6327215;28;20468;-63
2022/05/30 03:33:12;;;;;;;8.03;7.33;;;9.60;99.90;;;;;;6327390;28;20480;-63
2022/05/30 03:36:17;;;;;;;8.23;6.60;;;9.60;99.90;;;;;;6327336;28;20465;-63
2022/05/30 03:39:21;;;;;;;8.13;7.23;;;9.60;99.90;;;;;;6327201;28;20598;-63
2022/05/30 03:42:24;;;;;;;7.37;6.77;;;9.70;99.90;;;;;;6326786;28;20468;-62
2022/05/30 03:45:27;;;;;;;7.40;6.80;;;9.90;99.90;;;;;;6326435;28;20788;-62
2022/05/30 03:48:32;;;;;;;7.40;6.27;;;10.10;99.90;;;;;;6328658;28;20469;-62
2022/05/30 03:51:35;;;;;;;6.83;6.23;;;10.20;99.90;;;;;;6337822;28;20469;-63
2022/05/30 03:54:38;;;;;;;6.07;5.57;;;10.30;99.90;;;;;;6327093;28;20487;-62
2022/05/30 03:57:42;;;;;;;6.90;6.30;;;10.40;99.90;;;;;;6327116;28;20479;-62
2022/05/30 04:00:46;;;;;;;7.37;6.60;;;10.40;99.90;;;;;;6326304;28;20968;-62
2022/05/30 04:03:51;;;;;;;5.63;5.13;;;10.50;99.90;;;;;;6326651;28;20464;-62
2022/05/30 04:06:54;;;;;;;5.63;5.23;;;10.60;99.90;;;;;;6326036;28;20906;-62
2022/05/30 04:09:57;;;;;;;5.77;5.27;;;10.60;99.90;;;;;;6325925;28;20447;-62
2022/05/30 04:13:02;;;;;;;6.20;5.50;;;10.70;99.90;;;;;;6325927;28;20471;-63
2022/05/30 04:16:10;;;;;;;5.80;5.30;;;10.70;99.90;;;;;;6325840;28;20433;-63
2022/05/30 04:19:14;;;;;;;7.70;5.70;;;10.80;99.90;;;;;;6325960;28;20468;-62
2022/05/30 04:22:18;;;;;;;6.17;5.67;;;10.80;99.90;;;;;;6325358;28;20479;-62
2022/05/30 04:25:21;;;;;;;6.70;6.00;;;10.90;99.90;;;;;;6325815;28;20788;-62
2022/05/30 04:28:25;;;;;;;6.50;6.00;;;11.00;99.90;;;;;;6325996;28;20509;-62
2022/05/30 04:31:28;;;;;;;5.57;5.17;;;11.10;99.90;;;;;;6325328;28;20478;-63
2022/05/30 04:34:32;;;;;;;6.40;5.80;;;11.20;99.90;;;;;;6325580;28;21169;-63
2022/05/30 04:37:36;;;;;;;6.03;5.50;;;11.20;99.90;;;;;;6326029;28;20577;-62
2022/05/30 04:40:39;;;;;;;6.00;5.50;;;11.30;99.90;;;;;;6325713;28;20469;-62
2022/05/30 04:43:42;;;;;;;5.23;4.90;;;11.30;99.90;;;;;;6325440;28;20503;-62
2022/05/30 04:46:51;;;;;;;5.20;4.80;;;11.30;99.90;;;;;;6325605;28;20479;-63
2022/05/30 04:49:56;;;;;;;5.30;4.90;;;11.40;99.90;;;;;;6324991;28;20825;-62
2022/05/30 04:52:59;;;;;;;4.97;4.57;;;11.50;99.90;;;;;;6325281;28;20469;-63
2022/05/30 04:56:03;;;;;;;5.80;5.30;;;11.60;99.90;;;;;;6325021;28;20807;-62
2022/05/30 04:59:06;;;;;;;5.00;4.60;;;11.70;99.90;;;;;;6325002;28;20469;-63
2022/05/30 05:02:12;;;;;;;5.10;4.70;;;11.80;99.90;;;;;;6325073;28;20574;-64
2022/05/30 05:05:24;;;;;;;5.03;4.37;;;11.90;99.90;;;;;;6325162;28;20465;-63
2022/05/30 05:08:37;;;;;;;4.53;4.23;;;12.00;99.90;;;;;;6324803;28;20475;-63
2022/05/30 05:11:40;;;;;;;5.30;4.90;;;12.00;99.90;;;;;;6324831;28;20486;-63
2022/05/30 05:14:43;;;;;;;5.73;4.60;;;12.10;99.90;;;;;;6325042;28;20483;-63
2022/05/30 05:17:46;;;;;;;4.80;4.50;;;12.10;99.90;;;;;;6324583;28;20472;-63
2022/05/30 05:20:51;;;;;;;4.23;3.83;;;12.10;99.90;;;;;;6324493;28;20471;-63
2022/05/30 05:23:54;;;;;;;4.73;4.33;;;12.20;99.90;;;;;;6324596;28;20957;-63
2022/05/30 05:26:57;;;;;;;5.23;4.73;;;12.30;99.90;;;;;;6324685;28;20802;-63
2022/05/30 05:30:00;;;;;;;4.57;3.90;;;12.30;99.90;;;;;;6315513;28;20475;-63
2022/05/30 05:33:03;;;;;;;5.13;4.63;;;12.30;99.90;;;;;;6324890;28;20467;-63
2022/05/30 05:36:08;;;;;;;4.00;3.70;;;12.40;99.90;;;;;;6329697;28;20502;-63
2022/05/30 05:39:12;;;;;;;3.90;3.60;;;12.50;99.90;;;;;;6332809;28;20470;-63
2022/05/30 05:42:15;;;;;;;4.80;4.47;;;12.70;99.90;;;;;;6326908;28;20472;-63
2022/05/30 05:45:18;;;;;;;4.77;4.27;;;12.90;99.90;;;;;;6325271;28;20484;-63
2022/05/30 05:48:22;;;;;;;4.30;3.90;;;13.10;99.90;;;;;;6324527;28;20483;-63
2022/05/30 05:51:27;;;;;;;3.73;3.40;;;13.30;99.90;;;;;;6324895;28;20468;-63
2022/05/30 05:54:31;;;;;;;4.37;4.07;;;13.60;99.90;;;;;;6324420;28;20472;-63
2022/05/30 05:57:34;;;;;;;4.60;4.20;;;13.90;99.90;;;;;;6324575;28;20531;-63
2022/05/30 06:00:37;;;;;;;4.50;4.20;;;14.10;99.90;;;;;;6324184;28;20973;-63
2022/05/30 06:03:41;;;;;;;4.10;3.80;;;14.20;99.90;;;;;;6324564;28;20964;-63
2022/05/30 06:06:46;;;;;;;4.43;4.13;;;14.40;99.90;;;;;;6324430;28;20476;-63
2022/05/30 06:09:49;;;;;;;4.23;3.93;;;14.60;99.90;;;;;;6325383;28;20756;-63
2022/05/30 06:12:53;;;;;;;4.30;4.00;;;14.90;99.90;;;;;;6328679;28;20459;-62
2022/05/30 06:15:56;;;;;;;3.70;3.40;;;15.30;99.90;;;;;;6328901;28;20483;-63
2022/05/30 06:19:01;;;;;;;4.20;3.90;;;15.60;99.90;;;;;;6329102;28;20441;-64
2022/05/30 06:22:06;;;;;;;4.20;3.90;;;15.50;99.90;;;;;;6329337;28;20463;-63
2022/05/30 06:25:09;;;;;;;3.97;3.67;;;15.50;99.80;;;;;;6328622;28;20496;-63
2022/05/30 06:28:12;;;;;;;3.70;3.40;;;15.40;99.60;;;;;;6328724;28;20456;-63
2022/05/30 06:31:18;;;;;;;3.93;3.63;;;15.20;99.90;;;;;;6323561;28;20471;-62
2022/05/30 06:34:21;;;;;;;6.13;4.40;;;15.20;99.60;;;;;;6329273;28;20495;-63
2022/05/30 06:37:26;;;;;;;6.33;3.10;;;15.30;99.90;;;;;;6328645;28;20460;-63
2022/05/30 06:40:29;;;;;;;3.37;3.17;;;15.70;99.70;;;;;;6328782;28;20464;-63
2022/05/30 06:43:33;;;;;;;3.60;3.30;;;16.20;99.10;;;;;;6329031;28;20478;-63
2022/05/30 06:46:38;;;;;;;3.70;3.40;;;16.60;98.10;;;;;;6327859;28;20474;-63
2022/05/30 06:49:42;;;;;;;3.70;3.40;;;16.80;97.30;;;;;;6327979;28;20575;-63
2022/05/30 06:52:46;;;;;;;3.03;2.83;;;16.70;96.90;;;;;;6327881;28;20495;-63
2022/05/30 06:55:51;;;;;;;4.03;3.50;;;16.70;96.40;;;;;;6328013;28;20464;-63
2022/05/30 06:58:55;;;;;;;6.90;2.93;;;17.20;95.80;;;;;;6327638;28;21005;-63
2022/05/30 07:02:00;;;;;;;2.97;2.77;;;17.90;94.90;;;;;;6327681;28;20798;-63
2022/05/30 07:05:04;;;;;;;4.93;4.50;;;18.30;93.20;;;;;;6327408;28;20806;-64
2022/05/30 07:08:09;;;;;;;4.20;3.80;;;18.30;93.20;;;;;;6327446;28;20482;-64
2022/05/30 07:11:13;;;;;;;3.67;3.47;;;18.20;93.70;;;;;;6327402;28;20561;-64
2022/05/30 07:14:17;;;;;;;3.73;3.43;;;18.30;93.40;;;;;;6327656;28;20465;-64
2022/05/30 07:17:20;;;;;;;4.60;3.40;;;19.00;91.90;;;;;;6327347;28;20554;-64
2022/05/30 07:20:23;;;;;;;3.00;2.80;;;19.50;90.00;;;;;;6327774;28;20552;-63
2022/05/30 07:23:28;;;;;;;3.23;3.03;;;19.60;87.90;;;;;;6327334;28;20234;-65
2022/05/30 07:26:31;;;;;;;7.93;4.00;;;19.50;87.10;;;;;;6325067;28;20222;-64
2022/05/30 07:29:35;;;;;;;4.03;2.97;;;19.00;87.50;;;;;;6326990;28;20233;-63
2022/05/30 07:32:38;;;;;;;2.70;2.50;;;18.60;86.80;;;;;;6326848;28;20226;-63
2022/05/30 07:35:43;;;;;;;4.50;2.80;;;18.10;87.90;;;;;;6326785;28;20487;-62
2022/05/30 07:38:48;;;;;;;2.27;2.07;;;17.60;89.70;;;;;;6327950;28;20475;-62
2022/05/30 07:41:51;;;;;;;4.00;3.27;;;17.20;90.50;;;;;;6327211;28;20479;-64
2022/05/30 07:44:54;;;;;;;3.00;2.73;;;16.80;90.00;;;;;;6327552;28;20476;-63
2022/05/30 07:47:57;;;;;;;2.67;2.20;;;16.60;90.70;;;;;;6327115;28;20490;-63
2022/05/30 07:51:02;;;;;;;2.50;2.30;;;16.20;91.20;;;;;;6326946;28;20546;-63
2022/05/30 07:54:07;;;;;;;4.03;2.77;;;16.10;91.90;;;;;;6326328;28;20483;-63
2022/05/30 07:57:10;;;;;;;2.90;2.70;;;16.20;92.10;;;;;;6326605;28;20473;-63
2022/05/30 08:00:15;;;;;;;3.83;3.27;;;16.30;92.50;;;;;;6325857;28;20468;-63
2022/05/30 08:03:19;;;;;;;4.83;3.00;;;16.20;92.40;;;;;;6326780;28;20476;-65
2022/05/30 08:06:25;;;;;;;4.40;2.50;;;15.90;92.90;;;;;;6333563;28;20539;-64
2022/05/30 08:09:30;;;;;;;3.43;2.67;;;15.80;93.40;;;;;;6330345;28;21009;-65
2022/05/30 08:12:33;;;;;;;3.57;2.90;;;15.90;93.30;;;;;;6325663;28;20483;-64
2022/05/30 08:15:36;;;;;;;4.87;4.47;;;16.20;92.90;;;;;;6325573;28;20483;-63
2022/05/30 08:18:39;;;;;;;5.20;4.80;;;16.40;93.60;;;;;;6325926;28;20469;-65
2022/05/30 08:21:43;;;;;;;6.90;6.20;;;16.60;94.00;;;;;;6325728;28;20472;-64
2022/05/30 08:24:51;;;;;;;5.43;4.93;;;16.80;94.00;;;;;;6325802;28;21000;-64
2022/05/30 08:27:54;;;;;;;9.50;5.97;;;16.80;94.00;;;;;;6331177;27;20465;-64
2022/05/30 08:30:57;;;;;;;8.83;6.03;;;17.00;93.70;;;;;;6330943;28;20497;-64
2022/05/30 08:34:01;;;;;;;5.97;5.40;;;16.70;93.50;;;;;;6336158;28;20465;-63
2022/05/30 08:37:05;;;;;;;8.13;6.53;;;16.70;94.20;;;;;;6353467;28;20481;-63
2022/05/30 08:43:42;;;;;;;5.90;4.50;;;17.00;92.50;;;;;;6351344;28;20492;-64
2022/05/30 08:46:55;;;;;;;5.10;4.70;;;17.10;92.90;;;;;;6351078;28;20819;-64
2022/05/30 08:50:09;;;;;;;5.20;4.70;;;17.10;92.40;;;;;;6351457;28;20460;-63
2022/05/30 08:53:46;;;;;;;5.70;4.73;;;17.20;92.60;;;;;;6350108;28;20977;-64
2022/05/30 08:56:54;;;;;;;5.07;4.57;;;17.30;92.20;;;;;;6347903;28;20479;-63
2022/05/30 09:00:06;;;;;;;10.00;5.10;;;17.60;92.10;;;;;;6350792;28;20478;-64
2022/05/30 09:03:13;;;;;;;5.90;5.30;;;17.90;92.10;;;;;;6312923;28;20480;-63
2022/05/30 09:06:23;;;;;;;6.60;3.83;;;18.00;90.60;;;;;;6324469;28;20523;-63
2022/05/30 09:09:32;;;;;;;4.93;4.30;;;18.00;90.40;;;;;;6324650;28;20555;-63
2022/05/30 09:12:42;;;;;;;4.23;3.90;;;17.50;90.10;;;;;;6324638;28;20468;-64
2022/05/30 09:15:50;;;;;;;4.00;3.70;;;17.80;90.40;;;;;;6324250;28;20472;-63
2022/05/30 09:18:55;;;;;;;3.70;3.40;;;18.10;89.00;;;;;;6324274;28;20526;-63
2022/05/30 09:22:05;;;;;;;3.83;3.43;;;18.10;88.40;;;;;;6324430;28;20227;-64
2022/05/30 09:28:39;;;;;;;2.80;2.60;;;18.30;87.20;;;;;;6325430;28;20833;-63
2022/05/30 09:31:51;;;;;;;2.53;2.33;;;18.00;87.60;;;;;;6326711;28;20472;-64
2022/05/30 09:34:55;;;;;;;3.03;2.73;;;18.30;86.60;;;;;;6338393;28;20917;-65
2022/05/30 09:38:07;;;;;;;3.27;3.07;;;18.60;85.40;;;;;;6334727;28;20324;-66
2022/05/30 09:41:17;;;;;;;5.30;3.33;;;18.80;85.80;;;;;;6326003;28;20222;-65
2022/05/30 09:44:27;;;;;;;2.53;2.33;;;19.00;84.10;;;;;;6327065;28;20589;-67
2022/05/30 09:47:30;;;;;;;4.97;2.87;;;19.60;84.70;;;;;;6333873;28;20476;-65
2022/05/30 09:50:42;;;;;;;2.30;2.10;;;20.20;82.40;;;;;;6329501;28;20237;-64
2022/05/30 09:53:49;;;;;;;2.70;2.50;;;20.70;79.50;;;;;;6329133;28;20241;-65
2022/05/30 09:56:58;;;;;;;4.13;2.60;;;20.90;77.60;;;;;;6328766;28;20241;-66
2022/05/30 10:00:12;;;;;;;3.13;2.80;;;21.40;77.10;;;;;;6331684;28;20231;-67
2022/05/30 10:03:29;;;;;;;3.37;2.97;;;21.70;74.30;;;;;;6333198;28;20240;-65
2022/05/30 10:06:32;;;;;;;2.80;2.50;;;22.10;72.60;;;;;;6329122;28;20310;-66
2022/05/30 10:09:41;;;;;;;3.00;2.37;;;22.30;70.50;;;;;;6328726;28;20233;-63
2022/05/30 10:12:55;;;;;;;3.67;3.33;;;22.30;68.70;;;;;;6329105;28;20242;-63
2022/05/30 10:16:00;;;;;;;3.23;2.93;;;21.90;68.90;;;;;;6307485;27;20217;-63
2022/05/30 10:19:09;;;;;;;3.10;2.90;;;21.20;71.70;;;;;;6328363;28;20203;-62
2022/05/30 10:29:24;;;;;;;2.60;2.40;;;21.30;71.10;;;;;;6328020;28;20242;-63
2022/05/30 10:32:37;;;;;;;4.53;4.13;;;21.20;71.40;;;;;;6327880;28;20230;-63
2022/05/30 10:35:47;;;;;;;3.97;3.57;;;20.80;73.40;;;;;;6350054;28;20230;-63
2022/05/30 10:39:02;;;;;;;3.07;2.87;;;20.60;75.10;;;;;;6353194;28;20234;-63
2022/05/30 10:42:11;;;;;;;5.30;3.87;;;20.50;75.00;;;;;;6353113;28;20237;-63
2022/05/30 10:45:19;;;;;;;5.47;3.10;;;20.70;73.70;;;;;;6352796;28;20571;-63
2022/05/30 10:48:31;;;;;;;3.53;3.23;;;21.10;73.10;;;;;;6336898;28;20221;-66
2022/05/30 10:51:51;;;;;;;3.93;3.50;;;21.10;70.80;;;;;;6327077;28;20238;-66
2022/05/30 10:54:58;;;;;;;4.50;4.10;;;21.20;71.40;;;;;;6327156;27;20222;-62
2022/05/30 10:58:03;;;;;;;3.57;3.27;;;21.30;71.70;;;;;;6326463;28;20210;-62
2022/05/30 11:01:10;;;;;;;3.13;2.80;;;20.90;69.40;;;;;;6327031;28;20202;-62
2022/05/30 11:04:32;;;;;;;3.47;3.17;;;20.80;69.60;;;;;;6327661;28;20305;-61
2022/05/30 11:07:49;;;;;;;5.63;3.93;;;20.80;70.20;;;;;;6326432;28;20266;-62
2022/05/30 11:10:58;;;;;;;4.40;3.93;;;20.70;70.80;;;;;;6327023;28;20230;-62
2022/05/30 11:14:10;;;;;;;3.40;3.20;;;20.80;70.00;;;;;;6326416;28;20343;-62
2022/05/30 11:17:20;;;;;;;3.30;3.10;;;21.00;71.00;;;;;;6324815;28;20226;-62
2022/05/30 11:20:32;;;;;;;3.00;2.50;;;21.40;69.40;;;;;;6322756;28;20721;-63
2022/05/30 11:23:35;;;;;;;3.73;3.20;;;21.80;67.00;;;;;;6324992;28;20231;-63
2022/05/30 11:27:19;;;;;;;3.70;3.40;;;22.10;64.00;;;;;;6325325;28;20571;-62
2022/05/30 11:30:43;;;;;;;4.33;4.00;;;22.10;65.00;;;;;;6289597;28;20844;-63
2022/05/30 11:34:02;;;;;;;3.50;3.20;;;22.30;64.40;;;;;;6332714;28;20233;-63
2022/05/30 11:37:24;;;;;;;4.57;3.40;;;22.20;64.40;;;;;;6351738;28;20222;-64
2022/05/30 11:40:35;;;;;;;4.23;3.93;;;22.40;65.10;;;;;;6351546;27;20683;-62
2022/05/30 11:44:09;;;;;;;3.97;3.10;;;22.30;64.00;;;;;;6350926;28;20663;-62
2022/05/30 11:47:40;;;;;;;3.70;3.30;;;22.20;63.20;;;;;;6337036;27;20222;-63
2022/05/30 11:50:52;;;;;;;3.83;3.53;;;22.40;63.20;;;;;;6320257;28;20264;-63
2022/05/30 11:54:26;;;;;;;3.20;2.57;;;21.80;63.40;;;;;;6316611;28;20241;-63
2022/05/30 11:57:38;;;;;;;5.13;3.20;;;21.50;63.70;;;;;;6325807;27;20218;-62
2022/05/30 12:00:50;;;;;;;3.47;3.20;;;21.70;62.80;;;;;;6327425;28;20339;-63
2022/05/30 12:04:37;;;;;;;4.10;3.47;;;21.80;63.50;;;;;;6326546;27;20671;-61
2022/05/30 12:08:17;;;;;;;4.43;3.40;;;21.20;67.60;;;;;;6324604;28;20241;-63
2022/05/30 12:12:05;;;;;;;3.87;3.47;;;21.20;66.90;;;;;;6325778;27;20226;-64
2022/05/30 12:15:44;;;;;;;3.60;3.30;;;21.20;66.60;;;;;;6255240;28;20238;-63
2022/05/30 12:25:57;;;;;;;3.37;3.07;;;21.20;66.70;;;;;;6324440;28;20234;-62
2022/05/30 12:29:00;;;;;;;2.50;2.30;;;21.20;65.50;;;;;;6325023;28;20237;-64
2022/05/30 12:32:19;;;;;;;2.63;2.43;;;21.30;65.40;;;;;;6325378;28;20227;-64
2022/05/30 12:35:27;;;;;;;2.70;2.50;;;21.00;66.30;;;;;;6325154;28;20227;-63
2022/05/30 12:38:50;;;;;;;1.83;1.73;;;21.10;64.60;;;;;;6325306;28;20235;-63
2022/05/30 12:41:58;;;;;;;3.60;2.30;;;21.10;64.60;;;;;;6325112;28;20230;-63
2022/05/30 12:45:19;;;;;;;2.60;2.40;;;21.20;63.80;;;;;;6325290;28;20230;-63
2022/05/30 12:48:30;;;;;;;3.23;2.17;;;21.30;66.00;;;;;;6308845;28;20215;-63
2022/05/30 12:52:01;;;;;;;2.53;1.80;;;21.20;65.30;;;;;;6324445;28;20648;-63
2022/05/30 12:55:11;;;;;;;1.73;1.27;;;21.30;64.10;;;;;;6324938;28;20363;-64
2022/05/30 12:58:20;;;;;;;2.70;1.20;;;20.70;61.90;;;;;;6324781;28;20242;-63
2022/05/30 13:01:25;;;;;;;2.20;2.00;;;20.60;61.80;;;;;;6324239;28;20222;-65
2022/05/30 13:04:35;;;;;;;2.00;1.63;;;20.50;63.80;;;;;;6324445;28;20226;-64
2022/05/30 13:07:38;;;;;;;3.00;1.60;;;20.50;64.90;;;;;;6324487;28;20222;-64
2022/05/30 13:10:42;;;;;;;2.20;1.80;;;20.60;66.80;;;;;;6324601;28;20226;-64
2022/05/30 13:13:50;;;;;;;3.10;1.47;;;20.40;66.00;;;;;;6324398;28;20656;-64
2022/05/30 13:16:59;;;;;;;1.33;1.23;;;20.50;64.30;;;;;;6324841;28;20234;-63
2022/05/30 13:20:07;;;;;;;1.83;1.50;;;20.70;64.10;;;;;;6330288;28;20556;-64
2022/05/30 13:23:11;;;;;;;4.13;0.90;;;20.70;64.70;;;;;;6332916;28;20672;-63
2022/05/30 13:26:18;;;;;;;1.00;0.90;;;20.60;60.90;;;;;;6333319;28;20230;-64
2022/05/30 13:29:28;;;;;;;1.30;1.00;;;20.40;60.50;;;;;;6332623;28;20283;-64
2022/05/30 13:32:32;;;;;;;1.60;0.83;;;20.10;59.50;;;;;;6332598;28;20245;-64
2022/05/30 13:35:39;;;;;;;1.57;0.97;;;20.40;58.20;;;;;;6354342;28;20549;-63
2022/05/30 13:38:48;;;;;;;1.20;1.10;;;20.50;59.50;;;;;;6358258;28;20536;-63
2022/05/30 13:41:51;;;;;;;1.57;1.07;;;20.70;59.70;;;;;;6350599;28;20236;-64
2022/05/30 13:45:09;;;;;;;1.70;1.17;;;21.10;59.70;;;;;;6332434;28;20321;-63
2022/05/30 13:48:14;;;;;;;1.30;1.20;;;21.10;61.80;;;;;;6332553;28;20218;-63
2022/05/30 13:51:37;;;;;;;1.30;1.20;;;20.90;61.10;;;;;;6332541;27;20261;-65
2022/05/30 13:54:42;;;;;;;2.10;1.50;;;20.90;62.30;;;;;;6332291;28;20240;-64
2022/05/30 13:57:45;;;;;;;3.20;1.50;;;20.40;62.90;;;;;;6332316;28;20656;-63
2022/05/30 14:00:48;;;;;;;1.60;1.50;;;20.30;64.30;;;;;;6331919;28;20573;-64
2022/05/30 14:03:54;;;;;;;3.30;1.30;;;20.10;65.70;;;;;;6331456;28;20222;-62
2022/05/30 14:06:59;;;;;;;1.97;1.80;;;20.00;66.60;;;;;;6306610;28;20214;-63
2022/05/30 14:10:08;;;;;;;1.90;1.70;;;20.00;66.40;;;;;;6306767;28;20286;-63
2022/05/30 14:13:33;;;;;;;2.13;1.70;;;19.70;65.70;;;;;;6306277;28;20237;-62
2022/05/30 14:16:44;;;;;;;1.67;1.30;;;19.60;66.20;;;;;;6307380;28;20227;-63
2022/05/30 14:19:47;;;;;;;3.13;1.53;;;19.70;66.70;;;;;;6306896;28;20756;-63
2022/05/30 14:22:54;;;;;;;1.20;1.10;;;19.80;65.70;;;;;;6307497;28;20227;-63
2022/05/30 14:25:57;;;;;;;3.50;1.50;;;19.90;66.10;;;;;;6307416;28;20249;-63
2022/05/30 14:29:06;;;;;;;1.43;1.33;;;19.90;66.80;;;;;;6306692;28;20241;-63
2022/05/30 14:32:29;;;;;;;1.50;1.30;;;19.90;68.70;;;;;;6302658;28;20223;-64
2022/05/30 14:35:33;;;;;;;1.40;1.30;;;19.80;66.60;;;;;;6324212;28;20230;-64
2022/05/30 14:38:44;;;;;;;1.60;1.50;;;19.70;65.70;;;;;;6327612;28;20250;-63
2022/05/30 14:42:01;;;;;;;1.53;1.43;;;19.80;67.20;;;;;;6328315;28;20234;-63
2022/05/30 14:45:08;;;;;;;1.00;1.00;;;19.90;67.80;;;;;;6327694;28;20249;-64
2022/05/30 14:48:17;;;;;;;1.50;1.40;;;19.90;67.70;;;;;;6320572;28;20215;-64
2022/05/30 14:51:27;;;;;;;3.20;1.20;;;19.70;66.50;;;;;;6302521;28;20223;-64
2022/05/30 14:54:37;;;;;;;1.27;1.17;;;19.50;67.10;;;;;;6302844;28;20246;-64
2022/05/30 14:57:45;;;;;;;1.67;1.17;;;19.30;67.60;;;;;;6302382;28;20227;-63
2022/05/30 15:00:54;;;;;;;1.53;1.43;;;19.00;68.70;;;;;;6303019;28;20234;-64
2022/05/30 15:04:05;;;;;;;2.10;1.17;;;19.20;68.20;;;;;;6293093;28;20222;-64
2022/05/30 15:07:11;;;;;;;2.67;1.10;;;19.30;67.60;;;;;;6302202;28;20202;-64
2022/05/30 15:10:21;;;;;;;2.23;1.60;;;19.60;67.40;;;;;;6302384;28;20245;-63
2022/05/30 15:13:24;;;;;;;1.50;1.40;;;19.80;67.60;;;;;;6302242;28;20235;-63
2022/05/30 15:16:29;;;;;;;2.17;1.30;;;19.70;68.60;;;;;;6299862;28;20628;-63
2022/05/30 15:19:32;;;;;;;2.50;1.50;;;19.70;69.50;;;;;;6301903;28;20227;-65
2022/05/30 15:22:35;;;;;;;1.53;1.40;;;19.60;71.20;;;;;;6301659;28;20555;-66
2022/05/30 15:25:40;;;;;;;1.60;1.50;;;19.40;71.30;;;;;;6301742;28;20576;-61
2022/05/30 15:28:44;;;;;;;1.90;1.60;;;19.20;71.80;;;;;;6301949;28;20237;-63
2022/05/30 15:31:47;;;;;;;2.20;1.43;;;19.20;72.20;;;;;;6301425;28;20230;-63
2022/05/30 15:34:50;;;;;;;2.43;1.60;;;19.20;71.70;;;;;;6316528;28;20312;-62
2022/05/30 15:38:01;;;;;;;2.50;1.70;;;19.00;73.40;;;;;;6310656;28;20223;-63
2022/05/30 15:41:05;;;;;;;1.77;1.60;;;18.80;74.50;;;;;;6301036;28;20238;-65
2022/05/30 15:44:15;;;;;;;2.10;1.40;;;18.90;73.90;;;;;;6300034;28;20247;-65
2022/05/30 15:47:19;;;;;;;1.70;1.60;;;19.00;74.90;;;;;;6301001;28;20684;-62
2022/05/30 15:50:22;;;;;;;2.13;1.60;;;19.20;73.70;;;;;;6300376;28;20215;-61
2022/05/30 15:57:18;;;;;;;2.20;1.40;;;19.30;74.20;;;;;;6300076;28;20688;-61
2022/05/30 16:00:24;;;;;;;3.17;1.97;;;19.40;74.40;;;;;;6299840;28;20677;-61
2022/05/30 16:03:27;;;;;;;2.10;2.00;;;19.40;74.30;;;;;;6298723;28;20223;-62
2022/05/30 16:06:31;;;;;;;2.13;1.97;;;18.90;75.20;;;;;;6300070;28;20593;-61
2022/05/30 16:09:38;;;;;;;2.17;1.80;;;18.80;75.90;;;;;;6295986;28;20223;-61
2022/05/30 16:12:45;;;;;;;2.53;1.90;;;18.80;75.50;;;;;;6299722;28;20236;-62
2022/05/30 16:15:48;;;;;;;1.60;1.50;;;19.00;75.60;;;;;;6300256;28;20885;-62
2022/05/30 16:18:51;;;;;;;2.10;2.00;;;19.00;75.60;;;;;;6300491;28;20230;-61
2022/05/30 16:21:56;;;;;;;2.10;1.83;;;18.90;76.20;;;;;;6301208;28;20229;-62
2022/05/30 16:25:00;;;;;;;1.50;1.40;;;18.80;75.70;;;;;;6325025;28;20203;-62
2022/05/30 16:28:05;;;;;;;2.23;1.73;;;18.70;75.90;;;;;;6312650;28;20448;-61
2022/05/30 16:31:09;;;;;;;1.90;1.70;;;18.80;76.50;;;;;;6299911;28;20525;-61
2022/05/30 16:34:13;;;;;;;2.50;1.60;;;18.80;76.90;;;;;;6309889;28;20471;-61
2022/05/30 16:37:17;;;;;;;1.43;1.33;;;18.80;76.40;;;;;;6316863;28;20227;-60
2022/05/30 16:40:23;;;;;;;2.30;1.60;;;18.70;76.80;;;;;;6300229;28;20234;-64
2022/05/30 16:43:27;;;;;;;1.47;1.37;;;18.60;77.50;;;;;;6299765;28;20253;-64
2022/05/30 16:46:31;;;;;;;2.77;1.67;;;18.60;77.70;;;;;;6299625;28;20980;-64
2022/05/30 16:49:35;;;;;;;2.83;1.90;;;18.80;77.70;;;;;;6299618;28;20247;-63
2022/05/30 16:52:38;;;;;;;2.13;1.50;;;18.80;78.00;;;;;;6299187;28;20492;-63